createdAt,value
2017-01-24T00:00:19.976Z,830.72
2017-01-24T00:00:50.009Z,830.76
2017-01-24T00:01:20.028Z,830.79
2017-01-24T00:01:50.055Z,830.78
2017-01-24T00:02:20.083Z,830.83
2017-01-24T00:02:50.109Z,830.88
2017-01-24T00:03:20.135Z,830.85
2017-01-24T00:03:50.162Z,830.81
2017-01-24T00:04:20.189Z,830.71
2017-01-24T00:04:50.218Z,830.79
2017-01-24T00:05:20.245Z,830.8
2017-01-24T00:05:50.269Z,830.8
2017-01-24T00:06:20.444Z,830.84
2017-01-24T00:06:50.322Z,830.87
2017-01-24T00:07:20.349Z,830.91
2017-01-24T00:07:50.377Z,830.95
2017-01-24T00:08:20.400Z,831
2017-01-24T00:08:50.427Z,831.03
2017-01-24T00:09:20.467Z,831.09
2017-01-24T00:09:50.497Z,831.1
2017-01-24T00:10:20.510Z,831.16
2017-01-24T00:10:50.535Z,831.21
2017-01-24T00:11:20.563Z,831.24
2017-01-24T00:11:50.588Z,831.33
2017-01-24T00:12:20.616Z,831.31
2017-01-24T00:12:50.645Z,831.33
2017-01-24T00:13:20.669Z,831.29
2017-01-24T00:13:50.697Z,831.39
2017-01-24T00:14:20.723Z,831.37
2017-01-24T00:14:50.749Z,831.34
2017-01-24T00:15:20.774Z,831.31
2017-01-24T00:15:50.804Z,831.27
2017-01-24T00:16:20.828Z,831.27
2017-01-24T00:16:50.857Z,831.3
2017-01-24T00:17:20.883Z,831.28
2017-01-24T00:17:50.908Z,831.32
2017-01-24T00:18:20.935Z,831.27
2017-01-24T00:18:50.964Z,831.25
2017-01-24T00:19:20.987Z,831.21
2017-01-24T00:19:51.013Z,831.17
2017-01-24T00:20:21.044Z,831.19
2017-01-24T00:20:51.068Z,831.24
2017-01-24T00:21:21.097Z,831.32
2017-01-24T00:21:51.121Z,831.35
2017-01-24T00:22:21.147Z,831.42
2017-01-24T00:22:51.173Z,831.41
2017-01-24T00:23:21.203Z,831.46
2017-01-24T00:23:51.232Z,831.52
2017-01-24T00:24:21.257Z,831.5
2017-01-24T00:24:51.282Z,831.54
2017-01-24T00:25:21.308Z,831.56
2017-01-24T00:25:51.334Z,831.6
2017-01-24T00:26:21.364Z,831.61
2017-01-24T00:26:51.389Z,831.65
2017-01-24T00:27:21.439Z,831.65
2017-01-24T00:27:51.444Z,831.69
2017-01-24T00:28:21.467Z,831.67
2017-01-24T00:28:51.495Z,831.65
2017-01-24T00:29:21.522Z,831.64
2017-01-24T00:29:51.551Z,831.68
2017-01-24T00:30:21.578Z,831.71
2017-01-24T00:30:51.605Z,831.75
2017-01-24T00:31:21.631Z,831.73
2017-01-24T00:31:51.666Z,831.8
2017-01-24T00:32:21.682Z,831.83
2017-01-24T00:32:51.711Z,831.82
2017-01-24T00:33:21.735Z,831.82
2017-01-24T00:33:51.767Z,831.78
2017-01-24T00:34:21.788Z,831.81
2017-01-24T00:34:51.816Z,831.81
2017-01-24T00:35:21.843Z,831.78
2017-01-24T00:35:51.868Z,831.76
2017-01-24T00:36:21.894Z,831.75
2017-01-24T00:36:51.923Z,831.74
2017-01-24T00:37:21.951Z,831.67
2017-01-24T00:37:51.976Z,831.73
2017-01-24T00:38:22.006Z,831.72
2017-01-24T00:38:52.031Z,831.76
2017-01-24T00:39:22.056Z,831.77
2017-01-24T00:39:52.086Z,831.79
2017-01-24T00:40:22.111Z,831.77
2017-01-24T00:40:52.140Z,831.75
2017-01-24T00:41:22.164Z,831.74
2017-01-24T00:41:52.191Z,831.67
2017-01-24T00:42:22.218Z,831.64
2017-01-24T00:42:52.246Z,831.61
2017-01-24T00:43:22.273Z,831.63
2017-01-24T00:43:52.298Z,831.57
2017-01-24T00:44:22.327Z,831.58
2017-01-24T00:44:52.354Z,831.56
2017-01-24T00:45:22.377Z,831.57
2017-01-24T00:45:52.407Z,831.56
2017-01-24T00:46:22.434Z,831.57
2017-01-24T00:46:52.460Z,831.6
2017-01-24T00:47:22.485Z,831.61
2017-01-24T00:47:52.514Z,831.63
2017-01-24T00:48:22.540Z,831.63
2017-01-24T00:48:52.567Z,831.61
2017-01-24T00:49:22.592Z,831.58
2017-01-24T00:49:52.620Z,831.59
2017-01-24T00:50:22.646Z,831.61
2017-01-24T00:50:52.676Z,831.6
2017-01-24T00:51:22.701Z,831.65
2017-01-24T00:51:52.727Z,831.68
2017-01-24T00:52:22.755Z,831.68
2017-01-24T00:52:52.788Z,831.7
2017-01-24T00:53:22.807Z,831.65
2017-01-24T00:53:52.835Z,831.62
2017-01-24T00:54:22.862Z,831.61
2017-01-24T00:54:52.886Z,831.67
2017-01-24T00:55:22.915Z,831.66
2017-01-24T00:55:52.941Z,831.58
2017-01-24T00:56:22.968Z,831.58
2017-01-24T00:56:52.994Z,831.6
2017-01-24T00:57:23.020Z,831.59
2017-01-24T00:57:53.048Z,831.64
2017-01-24T00:58:23.073Z,831.59
2017-01-24T00:58:53.103Z,831.59
2017-01-24T00:59:23.127Z,831.59
2017-01-24T00:59:53.154Z,831.58
2017-01-24T01:00:23.184Z,831.61
2017-01-24T01:00:53.209Z,831.59
2017-01-24T01:01:23.234Z,831.62
2017-01-24T01:01:53.264Z,831.61
2017-01-24T01:02:23.289Z,831.56
2017-01-24T01:02:53.315Z,831.52
2017-01-24T01:03:23.341Z,831.55
2017-01-24T01:03:53.371Z,831.54
2017-01-24T01:04:23.397Z,831.5
2017-01-24T01:04:53.423Z,831.49
2017-01-24T01:05:23.448Z,831.5
2017-01-24T01:05:53.478Z,831.52
2017-01-24T01:06:23.501Z,831.48
2017-01-24T01:06:53.531Z,831.5
2017-01-24T01:07:23.557Z,831.49
2017-01-24T01:07:53.683Z,831.5
2017-01-24T01:08:23.610Z,831.5
2017-01-24T01:08:53.636Z,831.5
2017-01-24T01:09:23.664Z,831.49
2017-01-24T01:09:53.689Z,831.56
2017-01-24T01:10:23.718Z,831.49
2017-01-24T01:10:53.744Z,831.44
2017-01-24T01:11:23.771Z,831.45
2017-01-24T01:11:53.798Z,831.42
2017-01-24T01:12:23.829Z,831.41
2017-01-24T01:12:53.852Z,831.42
2017-01-24T01:13:23.880Z,831.45
2017-01-24T01:13:53.904Z,831.43
2017-01-24T01:14:23.935Z,831.39
2017-01-24T01:14:53.961Z,831.34
2017-01-24T01:15:23.984Z,831.31
2017-01-24T01:15:54.009Z,831.31
2017-01-24T01:16:24.038Z,831.32
2017-01-24T01:16:54.064Z,831.31
2017-01-24T01:17:24.093Z,831.29
2017-01-24T01:17:54.120Z,831.34
2017-01-24T01:18:24.170Z,831.29
2017-01-24T01:18:54.184Z,831.28
2017-01-24T01:19:24.199Z,831.26
2017-01-24T01:19:54.226Z,831.34
2017-01-24T01:20:24.255Z,831.3
2017-01-24T01:20:54.278Z,831.3
2017-01-24T01:21:24.306Z,831.32
2017-01-24T01:21:54.333Z,831.33
2017-01-24T01:22:24.360Z,831.35
2017-01-24T01:22:54.387Z,831.33
2017-01-24T01:23:24.413Z,831.37
2017-01-24T01:23:54.439Z,831.35
2017-01-24T01:24:24.465Z,831.31
2017-01-24T01:24:54.493Z,831.34
2017-01-24T01:25:24.520Z,831.35
2017-01-24T01:25:54.547Z,831.29
2017-01-24T01:26:24.573Z,831.28
2017-01-24T01:26:54.601Z,831.28
2017-01-24T01:27:24.626Z,831.26
2017-01-24T01:27:54.653Z,831.21
2017-01-24T01:28:24.681Z,831.27
2017-01-24T01:28:54.708Z,831.24
2017-01-24T01:29:24.737Z,831.25
2017-01-24T01:29:54.761Z,831.28
2017-01-24T01:30:24.786Z,831.24
2017-01-24T01:30:54.815Z,831.24
2017-01-24T01:31:24.839Z,831.23
2017-01-24T01:31:54.871Z,831.21
2017-01-24T01:32:24.894Z,831.24
2017-01-24T01:32:54.922Z,831.28
2017-01-24T01:33:24.950Z,831.34
2017-01-24T01:33:54.976Z,831.26
2017-01-24T01:34:25.003Z,831.26
2017-01-24T01:34:55.028Z,831.28
2017-01-24T01:35:25.055Z,831.26
2017-01-24T01:35:55.085Z,831.28
2017-01-24T01:36:25.113Z,831.28
2017-01-24T01:36:55.136Z,831.29
2017-01-24T01:37:25.163Z,831.3
2017-01-24T01:37:55.189Z,831.31
2017-01-24T01:38:25.418Z,831.29
2017-01-24T01:38:55.245Z,831.35
2017-01-24T01:39:25.272Z,831.41
2017-01-24T01:39:55.300Z,831.46
2017-01-24T01:40:25.324Z,831.51
2017-01-24T01:40:55.354Z,831.55
2017-01-24T01:41:25.375Z,831.61
2017-01-24T01:41:55.404Z,831.63
2017-01-24T01:42:25.430Z,831.65
2017-01-24T01:42:55.457Z,831.64
2017-01-24T01:43:25.485Z,831.6
2017-01-24T01:43:55.513Z,831.62
2017-01-24T01:44:25.539Z,831.6
2017-01-24T01:44:55.566Z,831.64
2017-01-24T01:45:25.593Z,831.58
2017-01-24T01:45:55.617Z,831.59
2017-01-24T01:46:25.647Z,831.62
2017-01-24T01:46:55.672Z,831.6
2017-01-24T01:47:25.697Z,831.58
2017-01-24T01:47:55.725Z,831.64
2017-01-24T01:48:25.753Z,831.64
2017-01-24T01:48:55.779Z,831.62
2017-01-24T01:49:25.807Z,831.65
2017-01-24T01:49:55.834Z,831.62
2017-01-24T01:50:25.858Z,831.62
2017-01-24T01:50:55.888Z,831.66
2017-01-24T01:51:25.912Z,831.71
2017-01-24T01:51:55.945Z,831.72
2017-01-24T01:52:25.967Z,831.75
2017-01-24T01:52:55.990Z,831.78
2017-01-24T01:53:26.021Z,831.82
2017-01-24T01:53:56.044Z,831.8
2017-01-24T01:54:26.075Z,831.82
2017-01-24T01:54:56.099Z,831.84
2017-01-24T01:55:26.127Z,831.86
2017-01-24T01:55:56.153Z,831.86
2017-01-24T01:56:26.181Z,831.84
2017-01-24T01:56:56.207Z,831.85
2017-01-24T01:57:26.234Z,831.88
2017-01-24T01:57:56.261Z,831.8
2017-01-24T01:58:26.287Z,831.85
2017-01-24T01:58:56.315Z,831.89
2017-01-24T01:59:26.343Z,831.87
2017-01-24T01:59:56.367Z,831.89
2017-01-24T02:00:26.395Z,831.88
2017-01-24T02:00:56.423Z,831.99
2017-01-24T02:01:26.460Z,831.99
2017-01-24T02:01:56.474Z,832.01
2017-01-24T02:02:26.501Z,832.02
2017-01-24T02:02:56.530Z,832.06
2017-01-24T02:03:26.565Z,832.08
2017-01-24T02:03:56.583Z,832.04
2017-01-24T02:04:26.632Z,832.02
2017-01-24T02:04:56.650Z,832.02
2017-01-24T02:05:26.662Z,832.06
2017-01-24T02:05:56.689Z,832.09
2017-01-24T02:06:26.717Z,832.08
2017-01-24T02:06:56.743Z,832.12
2017-01-24T02:07:26.769Z,832.16
2017-01-24T02:07:56.795Z,832.16
2017-01-24T02:08:26.821Z,832.16
2017-01-24T02:08:56.852Z,832.17
2017-01-24T02:09:26.878Z,832.17
2017-01-24T02:09:56.904Z,832.17
2017-01-24T02:10:26.928Z,832.23
2017-01-24T02:10:56.960Z,832.23
2017-01-24T02:11:26.982Z,832.29
2017-01-24T02:11:57.012Z,832.3
2017-01-24T02:12:27.037Z,832.29
2017-01-24T02:12:57.065Z,832.34
2017-01-24T02:13:27.094Z,832.38
2017-01-24T02:13:57.119Z,832.42
2017-01-24T02:14:27.145Z,832.42
2017-01-24T02:14:57.172Z,832.48
2017-01-24T02:15:27.197Z,832.45
2017-01-24T02:15:57.224Z,832.42
2017-01-24T02:16:27.253Z,832.44
2017-01-24T02:16:57.280Z,832.54
2017-01-24T02:17:27.305Z,832.61
2017-01-24T02:17:57.334Z,832.67
2017-01-24T02:18:27.361Z,832.7
2017-01-24T02:18:57.386Z,832.71
2017-01-24T02:19:27.414Z,832.73
2017-01-24T02:19:57.440Z,832.77
2017-01-24T02:20:27.468Z,832.8
2017-01-24T02:20:57.495Z,832.82
2017-01-24T02:21:27.522Z,832.82
2017-01-24T02:21:57.549Z,832.87
2017-01-24T02:22:27.576Z,832.91
2017-01-24T02:22:57.604Z,832.85
2017-01-24T02:23:27.630Z,832.84
2017-01-24T02:23:57.658Z,832.94
2017-01-24T02:24:27.682Z,832.94
2017-01-24T02:24:57.710Z,832.97
2017-01-24T02:25:27.738Z,833
2017-01-24T02:25:57.769Z,833
2017-01-24T02:26:27.793Z,833.02
2017-01-24T02:26:57.820Z,833.09
2017-01-24T02:27:27.843Z,833.11
2017-01-24T02:27:57.871Z,833.09
2017-01-24T02:28:27.899Z,833.12
2017-01-24T02:28:57.926Z,833.15
2017-01-24T02:29:27.952Z,833.17
2017-01-24T02:29:57.978Z,833.18
2017-01-24T02:30:28.007Z,833.23
2017-01-24T02:30:58.033Z,833.24
2017-01-24T02:31:28.060Z,833.26
2017-01-24T02:31:58.086Z,833.31
2017-01-24T02:32:28.113Z,833.28
2017-01-24T02:32:58.140Z,833.31
2017-01-24T02:33:28.169Z,833.26
2017-01-24T02:33:58.196Z,833.29
2017-01-24T02:34:28.218Z,833.3
2017-01-24T02:34:58.246Z,833.38
2017-01-24T02:35:28.274Z,833.46
2017-01-24T02:35:58.301Z,833.45
2017-01-24T02:36:28.329Z,833.48
2017-01-24T02:36:58.356Z,833.5
2017-01-24T02:37:28.382Z,833.5
2017-01-24T02:37:58.409Z,833.48
2017-01-24T02:38:28.436Z,833.47
2017-01-24T02:38:58.463Z,833.43
2017-01-24T02:39:28.490Z,833.45
2017-01-24T02:39:58.518Z,833.45
2017-01-24T02:40:28.543Z,833.39
2017-01-24T02:40:58.596Z,833.37
2017-01-24T02:41:28.596Z,833.36
2017-01-24T02:41:58.626Z,833.33
2017-01-24T02:42:28.652Z,833.31
2017-01-24T02:42:58.679Z,833.29
2017-01-24T02:43:28.707Z,833.21
2017-01-24T02:43:58.732Z,833.19
2017-01-24T02:44:28.766Z,833.19
2017-01-24T02:44:58.787Z,833.1
2017-01-24T02:45:28.813Z,833.17
2017-01-24T02:45:58.842Z,833.13
2017-01-24T02:46:28.875Z,833.08
2017-01-24T02:46:58.894Z,833.08
2017-01-24T02:47:28.921Z,833.05
2017-01-24T02:47:58.950Z,833.06
2017-01-24T02:48:28.976Z,833.04
2017-01-24T02:48:59.002Z,833.07
2017-01-24T02:49:29.028Z,833.06
2017-01-24T02:49:59.055Z,833.09
2017-01-24T02:50:29.083Z,833.17
2017-01-24T02:50:59.109Z,833.17
2017-01-24T02:51:29.136Z,833.19
2017-01-24T02:51:59.164Z,833.23
2017-01-24T02:52:29.189Z,833.2
2017-01-24T02:52:59.220Z,833.23
2017-01-24T02:53:29.244Z,833.35
2017-01-24T02:53:59.271Z,833.37
2017-01-24T02:54:29.299Z,833.38
2017-01-24T02:54:59.325Z,833.44
2017-01-24T02:55:29.353Z,833.44
2017-01-24T02:55:59.380Z,833.5
2017-01-24T02:56:29.416Z,833.5
2017-01-24T02:56:59.433Z,833.51
2017-01-24T02:57:29.459Z,833.5
2017-01-24T02:57:59.487Z,833.53
2017-01-24T02:58:29.512Z,833.52
2017-01-24T02:58:59.544Z,833.54
2017-01-24T02:59:29.566Z,833.54
2017-01-24T02:59:59.595Z,833.48
2017-01-24T03:00:29.619Z,833.47
2017-01-24T03:00:59.646Z,833.49
2017-01-24T03:01:29.672Z,833.5
2017-01-24T03:01:59.702Z,833.52
2017-01-24T03:02:29.729Z,833.48
2017-01-24T03:02:59.764Z,833.46
2017-01-24T03:03:29.782Z,833.45
2017-01-24T03:03:59.811Z,833.47
2017-01-24T03:04:29.836Z,833.44
2017-01-24T03:04:59.861Z,833.45
2017-01-24T03:05:29.889Z,833.51
2017-01-24T03:05:59.917Z,833.47
2017-01-24T03:06:29.943Z,833.48
2017-01-24T03:06:59.971Z,833.44
2017-01-24T03:07:29.997Z,833.44
2017-01-24T03:08:00.026Z,833.37
2017-01-24T03:08:30.051Z,833.42
2017-01-24T03:09:00.079Z,833.44
2017-01-24T03:09:30.105Z,833.47
2017-01-24T03:10:00.131Z,833.48
2017-01-24T03:10:30.163Z,833.43
2017-01-24T03:11:00.184Z,833.45
2017-01-24T03:11:30.210Z,833.49
2017-01-24T03:12:00.241Z,833.49
2017-01-24T03:12:30.264Z,833.46
2017-01-24T03:13:00.292Z,833.48
2017-01-24T03:13:30.319Z,833.5
2017-01-24T03:14:00.347Z,833.47
2017-01-24T03:14:30.372Z,833.5
2017-01-24T03:15:00.401Z,833.52
2017-01-24T03:15:30.424Z,833.5
2017-01-24T03:16:00.454Z,833.49
2017-01-24T03:16:30.478Z,833.52
2017-01-24T03:17:00.506Z,833.52
2017-01-24T03:17:30.531Z,833.5
2017-01-24T03:18:00.556Z,833.53
2017-01-24T03:18:30.590Z,833.51
2017-01-24T03:19:00.619Z,833.55
2017-01-24T03:19:30.640Z,833.54
2017-01-24T03:20:00.668Z,833.52
2017-01-24T03:20:30.693Z,833.56
2017-01-24T03:21:00.723Z,833.58
2017-01-24T03:21:30.750Z,833.56
2017-01-24T03:22:00.774Z,833.59
2017-01-24T03:22:30.800Z,833.61
2017-01-24T03:23:00.826Z,833.63
2017-01-24T03:23:30.854Z,833.61
2017-01-24T03:24:00.903Z,833.66
2017-01-24T03:24:30.908Z,833.61
2017-01-24T03:25:00.935Z,833.57
2017-01-24T03:25:30.958Z,833.66
2017-01-24T03:26:00.989Z,833.72
2017-01-24T03:26:31.014Z,833.71
2017-01-24T03:27:01.042Z,833.73
2017-01-24T03:27:31.068Z,833.71
2017-01-24T03:28:01.094Z,833.76
2017-01-24T03:28:31.123Z,833.83
2017-01-24T03:29:01.150Z,833.83
2017-01-24T03:29:31.178Z,833.81
2017-01-24T03:30:01.201Z,833.87
2017-01-24T03:30:31.227Z,833.89
2017-01-24T03:31:01.258Z,833.92
2017-01-24T03:31:31.283Z,833.93
2017-01-24T03:32:01.309Z,833.98
2017-01-24T03:32:31.337Z,833.96
2017-01-24T03:33:01.361Z,834.01
2017-01-24T03:33:31.392Z,834.06
2017-01-24T03:34:01.419Z,834.1
2017-01-24T03:34:31.442Z,834.01
2017-01-24T03:35:01.471Z,834.12
2017-01-24T03:35:31.499Z,834.19
2017-01-24T03:36:01.525Z,834.17
2017-01-24T03:36:31.549Z,834.23
2017-01-24T03:37:01.577Z,834.22
2017-01-24T03:37:31.604Z,834.26
2017-01-24T03:38:01.633Z,834.27
2017-01-24T03:38:31.657Z,834.3
2017-01-24T03:39:01.687Z,834.3
2017-01-24T03:39:31.713Z,834.32
2017-01-24T03:40:01.738Z,834.38
2017-01-24T03:40:31.766Z,834.39
2017-01-24T03:41:01.795Z,834.41
2017-01-24T03:41:31.817Z,834.42
2017-01-24T03:42:01.846Z,834.49
2017-01-24T03:42:31.872Z,834.54
2017-01-24T03:43:01.948Z,834.56
2017-01-24T03:43:31.929Z,834.55
2017-01-24T03:44:01.956Z,834.56
2017-01-24T03:44:31.982Z,834.63
2017-01-24T03:45:02.009Z,834.66
2017-01-24T03:45:32.033Z,834.68
2017-01-24T03:46:02.160Z,834.7
2017-01-24T03:46:32.087Z,834.72
2017-01-24T03:47:02.217Z,834.77
2017-01-24T03:47:32.141Z,834.78
2017-01-24T03:48:02.169Z,834.9
2017-01-24T03:48:32.193Z,834.92
2017-01-24T03:49:02.221Z,834.98
2017-01-24T03:49:32.250Z,835.06
2017-01-24T03:50:02.631Z,835.1
2017-01-24T03:50:32.305Z,835.13
2017-01-24T03:51:02.333Z,835.18
2017-01-24T03:51:32.360Z,835.25
2017-01-24T03:52:02.486Z,835.33
2017-01-24T03:52:32.411Z,835.36
2017-01-24T03:53:02.439Z,835.41
2017-01-24T03:53:32.464Z,835.48
2017-01-24T03:54:02.494Z,835.51
2017-01-24T03:54:32.522Z,835.59
2017-01-24T03:55:02.546Z,835.66
2017-01-24T03:55:32.575Z,835.68
2017-01-24T03:56:02.602Z,835.79
2017-01-24T03:56:32.630Z,835.81
2017-01-24T03:57:02.659Z,835.88
2017-01-24T03:57:32.683Z,835.92
2017-01-24T03:58:02.711Z,836.05
2017-01-24T03:58:32.738Z,836.11
2017-01-24T03:59:02.766Z,836.19
2017-01-24T03:59:32.790Z,836.29
2017-01-24T04:00:02.818Z,836.31
2017-01-24T04:00:32.848Z,836.39
2017-01-24T04:01:02.875Z,836.45
2017-01-24T04:01:32.900Z,836.5
2017-01-24T04:02:02.928Z,836.53
2017-01-24T04:02:32.961Z,836.58
2017-01-24T04:03:02.984Z,836.63
2017-01-24T04:03:33.009Z,836.63
2017-01-24T04:04:03.038Z,836.69
2017-01-24T04:04:33.067Z,836.68
2017-01-24T04:05:03.092Z,836.75
2017-01-24T04:05:33.121Z,836.86
2017-01-24T04:06:03.146Z,836.88
2017-01-24T04:06:33.175Z,836.88
2017-01-24T04:07:03.203Z,836.92
2017-01-24T04:07:33.229Z,836.95
2017-01-24T04:08:03.254Z,837.09
2017-01-24T04:08:33.283Z,837.13
2017-01-24T04:09:03.311Z,837.18
2017-01-24T04:09:33.336Z,837.25
2017-01-24T04:10:03.364Z,837.32
2017-01-24T04:10:33.391Z,837.36
2017-01-24T04:11:03.420Z,837.43
2017-01-24T04:11:33.444Z,837.41
2017-01-24T04:12:03.473Z,837.41
2017-01-24T04:12:33.501Z,837.42
2017-01-24T04:13:03.531Z,837.44
2017-01-24T04:13:33.556Z,837.45
2017-01-24T04:14:03.581Z,837.49
2017-01-24T04:14:33.611Z,837.51
2017-01-24T04:15:03.634Z,837.53
2017-01-24T04:15:33.666Z,837.57
2017-01-24T04:16:03.689Z,837.66
2017-01-24T04:16:33.721Z,837.67
2017-01-24T04:17:03.749Z,837.74
2017-01-24T04:17:33.774Z,837.78
2017-01-24T04:18:03.803Z,837.84
2017-01-24T04:18:33.829Z,837.8
2017-01-24T04:19:03.860Z,837.83
2017-01-24T04:19:33.900Z,837.84
2017-01-24T04:20:03.911Z,837.88
2017-01-24T04:20:33.939Z,837.82
2017-01-24T04:21:03.966Z,837.85
2017-01-24T04:21:34.017Z,837.86
2017-01-24T04:22:04.018Z,837.92
2017-01-24T04:22:34.050Z,837.92
2017-01-24T04:23:04.079Z,837.96
2017-01-24T04:23:34.105Z,837.96
2017-01-24T04:24:04.132Z,837.98
2017-01-24T04:24:34.159Z,837.97
2017-01-24T04:25:04.186Z,837.97
2017-01-24T04:25:34.210Z,838
2017-01-24T04:26:04.240Z,838
2017-01-24T04:26:34.274Z,837.99
2017-01-24T04:27:04.300Z,838.05
2017-01-24T04:27:34.323Z,838.07
2017-01-24T04:28:04.351Z,838.06
2017-01-24T04:28:34.376Z,838.05
2017-01-24T04:29:04.407Z,838.11
2017-01-24T04:29:34.433Z,838.06
2017-01-24T04:30:04.461Z,838.12
2017-01-24T04:30:34.487Z,838.17
2017-01-24T04:31:04.514Z,838.17
2017-01-24T04:31:34.542Z,838.16
2017-01-24T04:32:04.572Z,838.21
2017-01-24T04:32:34.597Z,838.23
2017-01-24T04:33:04.625Z,838.22
2017-01-24T04:33:34.653Z,838.25
2017-01-24T04:34:04.681Z,838.24
2017-01-24T04:34:34.707Z,838.27
2017-01-24T04:35:04.734Z,838.27
2017-01-24T04:35:34.762Z,838.32
2017-01-24T04:36:04.786Z,838.31
2017-01-24T04:36:34.839Z,838.31
2017-01-24T04:37:04.843Z,838.35
2017-01-24T04:37:34.872Z,838.36
2017-01-24T04:38:04.898Z,838.42
2017-01-24T04:38:34.922Z,838.4
2017-01-24T04:39:04.954Z,838.41
2017-01-24T04:39:34.978Z,838.4
2017-01-24T04:40:05.006Z,838.44
2017-01-24T04:40:35.033Z,838.47
2017-01-24T04:41:05.062Z,838.47
2017-01-24T04:41:35.089Z,838.49
2017-01-24T04:42:05.117Z,838.52
2017-01-24T04:42:35.145Z,838.54
2017-01-24T04:43:05.172Z,838.58
2017-01-24T04:43:35.200Z,838.53
2017-01-24T04:44:05.228Z,838.52
2017-01-24T04:44:35.255Z,838.53
2017-01-24T04:45:05.284Z,838.54
2017-01-24T04:45:35.311Z,838.56
2017-01-24T04:46:05.338Z,838.56
2017-01-24T04:46:35.365Z,838.59
2017-01-24T04:47:05.392Z,838.57
2017-01-24T04:47:35.418Z,838.57
2017-01-24T04:48:05.447Z,838.59
2017-01-24T04:48:35.475Z,838.63
2017-01-24T04:49:05.502Z,838.62
2017-01-24T04:49:35.528Z,838.66
2017-01-24T04:50:05.554Z,838.65
2017-01-24T04:50:35.583Z,838.67
2017-01-24T04:51:05.611Z,838.71
2017-01-24T04:51:35.637Z,838.72
2017-01-24T04:52:05.663Z,838.83
2017-01-24T04:52:35.692Z,838.83
2017-01-24T04:53:05.722Z,838.86
2017-01-24T04:53:35.748Z,838.89
2017-01-24T04:54:05.773Z,838.98
2017-01-24T04:54:35.803Z,839.01
2017-01-24T04:55:05.828Z,839.07
2017-01-24T04:55:35.854Z,839.07
2017-01-24T04:56:05.886Z,839.16
2017-01-24T04:56:35.911Z,839.16
2017-01-24T04:57:05.938Z,839.19
2017-01-24T04:57:35.967Z,839.17
2017-01-24T04:58:05.996Z,839.22
2017-01-24T04:58:36.021Z,839.24
2017-01-24T04:59:06.049Z,839.21
2017-01-24T04:59:36.076Z,839.27
2017-01-24T05:00:06.105Z,839.28
2017-01-24T05:00:36.131Z,839.3
2017-01-24T05:01:06.163Z,839.3
2017-01-24T05:01:36.185Z,839.31
2017-01-24T05:02:06.214Z,839.35
2017-01-24T05:02:36.240Z,839.38
2017-01-24T05:03:06.266Z,839.34
2017-01-24T05:03:36.298Z,839.39
2017-01-24T05:04:06.324Z,839.4
2017-01-24T05:04:36.348Z,839.45
2017-01-24T05:05:06.378Z,839.47
2017-01-24T05:05:36.407Z,839.49
2017-01-24T05:06:06.432Z,839.49
2017-01-24T05:06:36.459Z,839.47
2017-01-24T05:07:06.490Z,839.54
2017-01-24T05:07:36.515Z,839.56
2017-01-24T05:08:06.540Z,839.57
2017-01-24T05:08:36.570Z,839.65
2017-01-24T05:09:06.596Z,839.66
2017-01-24T05:09:36.624Z,839.71
2017-01-24T05:10:06.652Z,839.68
2017-01-24T05:10:36.679Z,839.77
2017-01-24T05:11:06.707Z,839.8
2017-01-24T05:11:36.733Z,839.84
2017-01-24T05:12:06.772Z,839.82
2017-01-24T05:12:36.790Z,839.94
2017-01-24T05:13:06.841Z,839.95
2017-01-24T05:13:36.844Z,839.97
2017-01-24T05:14:06.871Z,840.03
2017-01-24T05:14:36.898Z,840.02
2017-01-24T05:15:06.926Z,840.09
2017-01-24T05:15:36.954Z,840.12
2017-01-24T05:16:06.980Z,840.17
2017-01-24T05:16:37.009Z,840.24
2017-01-24T05:17:07.034Z,840.28
2017-01-24T05:17:37.061Z,840.34
2017-01-24T05:18:07.090Z,840.39
2017-01-24T05:18:37.129Z,840.46
2017-01-24T05:19:07.145Z,840.5
2017-01-24T05:19:37.173Z,840.57
2017-01-24T05:20:07.199Z,840.6
2017-01-24T05:20:37.226Z,840.66
2017-01-24T05:21:07.255Z,840.66
2017-01-24T05:21:37.284Z,840.74
2017-01-24T05:22:07.308Z,840.76
2017-01-24T05:22:37.336Z,840.85
2017-01-24T05:23:07.365Z,840.89
2017-01-24T05:23:37.394Z,840.91
2017-01-24T05:24:07.420Z,840.92
2017-01-24T05:24:37.446Z,840.94
2017-01-24T05:25:07.474Z,840.99
2017-01-24T05:25:37.500Z,841.02
2017-01-24T05:26:07.528Z,841.01
2017-01-24T05:26:37.559Z,841.02
2017-01-24T05:27:07.581Z,841.03
2017-01-24T05:27:37.612Z,841.03
2017-01-24T05:28:07.642Z,841.01
2017-01-24T05:28:37.667Z,841.09
2017-01-24T05:29:07.694Z,841.1
2017-01-24T05:29:37.726Z,841.1
2017-01-24T05:30:07.754Z,841.1
2017-01-24T05:30:37.774Z,841.1
2017-01-24T05:31:07.805Z,841.07
2017-01-24T05:31:37.831Z,841.11
2017-01-24T05:32:07.857Z,841.11
2017-01-24T05:32:37.886Z,841.16
2017-01-24T05:33:07.912Z,841.19
2017-01-24T05:33:37.941Z,841.23
2017-01-24T05:34:07.968Z,841.23
2017-01-24T05:34:38.001Z,841.26
2017-01-24T05:35:08.024Z,841.37
2017-01-24T05:35:38.049Z,841.41
2017-01-24T05:36:08.076Z,841.44
2017-01-24T05:36:38.107Z,841.49
2017-01-24T05:37:08.132Z,841.56
2017-01-24T05:37:38.159Z,841.55
2017-01-24T05:38:08.186Z,841.55
2017-01-24T05:38:38.215Z,841.6
2017-01-24T05:39:08.240Z,841.58
2017-01-24T05:39:38.279Z,841.58
2017-01-24T05:40:08.298Z,841.59
2017-01-24T05:40:38.325Z,841.62
2017-01-24T05:41:08.349Z,841.65
2017-01-24T05:41:38.387Z,841.66
2017-01-24T05:42:08.408Z,841.7
2017-01-24T05:42:38.435Z,841.68
2017-01-24T05:43:08.462Z,841.7
2017-01-24T05:43:38.487Z,841.64
2017-01-24T05:44:08.517Z,841.65
2017-01-24T05:44:38.546Z,841.66
2017-01-24T05:45:08.576Z,841.65
2017-01-24T05:45:38.598Z,841.64
2017-01-24T05:46:08.627Z,841.66
2017-01-24T05:46:38.655Z,841.62
2017-01-24T05:47:08.683Z,841.58
2017-01-24T05:47:38.709Z,841.59
2017-01-24T05:48:08.738Z,841.62
2017-01-24T05:48:38.765Z,841.61
2017-01-24T05:49:08.794Z,841.65
2017-01-24T05:49:38.819Z,841.71
2017-01-24T05:50:08.847Z,841.73
2017-01-24T05:50:38.872Z,841.8
2017-01-24T05:51:08.900Z,841.83
2017-01-24T05:51:38.927Z,841.82
2017-01-24T05:52:08.955Z,841.8
2017-01-24T05:52:38.984Z,841.82
2017-01-24T05:53:09.012Z,841.73
2017-01-24T05:53:39.038Z,841.79
2017-01-24T05:54:09.066Z,841.76
2017-01-24T05:54:39.095Z,841.77
2017-01-24T05:55:09.122Z,841.79
2017-01-24T05:55:39.147Z,841.82
2017-01-24T05:56:09.176Z,841.81
2017-01-24T05:56:39.205Z,841.81
2017-01-24T05:57:09.248Z,841.84
2017-01-24T05:57:39.258Z,841.84
2017-01-24T05:58:09.286Z,841.87
2017-01-24T05:58:39.315Z,841.88
2017-01-24T05:59:09.342Z,841.93
2017-01-24T05:59:39.369Z,841.95
2017-01-24T06:00:09.397Z,842.02
2017-01-24T06:00:39.426Z,842.04
2017-01-24T06:01:09.451Z,842.02
2017-01-24T06:01:39.478Z,842.04
2017-01-24T06:02:09.506Z,842.06
2017-01-24T06:02:39.533Z,842.11
2017-01-24T06:03:09.559Z,842.15
2017-01-24T06:03:39.588Z,842.15
2017-01-24T06:04:09.617Z,842.18
2017-01-24T06:04:39.643Z,842.2
2017-01-24T06:05:09.671Z,842.23
2017-01-24T06:05:39.698Z,842.27
2017-01-24T06:06:09.725Z,842.24
2017-01-24T06:06:39.752Z,842.29
2017-01-24T06:07:09.783Z,842.34
2017-01-24T06:07:39.807Z,842.29
2017-01-24T06:08:09.838Z,842.28
2017-01-24T06:08:39.864Z,842.32
2017-01-24T06:09:09.890Z,842.38
2017-01-24T06:09:39.920Z,842.39
2017-01-24T06:10:09.948Z,842.48
2017-01-24T06:10:39.972Z,842.46
2017-01-24T06:11:10.000Z,842.48
2017-01-24T06:11:40.027Z,842.57
2017-01-24T06:12:10.056Z,842.58
2017-01-24T06:12:40.082Z,842.62
2017-01-24T06:13:10.109Z,842.71
2017-01-24T06:13:40.137Z,842.76
2017-01-24T06:14:10.166Z,842.79
2017-01-24T06:14:40.195Z,842.82
2017-01-24T06:15:10.221Z,842.89
2017-01-24T06:15:40.250Z,842.93
2017-01-24T06:16:10.276Z,842.97